Time;durP1;ratioP1;P1;durP2;ratioP2;P2;SDS_P1;SDS_P2;PMS_P1;PMS_P2;Temp;Humidity;BMP_temperature;BMP_pressure;BME280_temperature;BME280_humidity;BME280_pressure;Samples;Min_cycle;Max_cycle;Signal;HPM_P1;HPM_P2
2024/01/18 00:01:36;;;;;;;0.20;0.20;;;;;;;;;;5028353;28;20124;-59
2024/01/18 00:04:03;;;;;;;0.35;0.17;;;;;;;;;;5033983;28;20048;-59
2024/01/18 00:06:31;;;;;;;0.10;0.08;;;;;;;;;;5035290;28;20051;-59
2024/01/18 00:08:57;;;;;;;0.10;0.10;;;;;;;;;;5035996;28;20081;-60
2024/01/18 00:11:25;;;;;;;0.10;0.10;;;;;;;;;;5031418;28;20064;-59
2024/01/18 00:13:51;;;;;;;0.00;0.00;;;;;;;;;;5033272;28;20053;-59
2024/01/18 00:16:17;;;;;;;0.10;0.10;;;;;;;;;;5033612;28;20564;-59
2024/01/18 00:18:43;;;;;;;0.00;0.00;;;;;;;;;;5031174;28;20454;-59
2024/01/18 00:21:09;;;;;;;0.00;0.00;;;;;;;;;;5033981;28;20115;-59
2024/01/18 00:23:35;;;;;;;0.00;0.00;;;;;;;;;;5029865;28;20178;-58
2024/01/18 00:26:02;;;;;;;0.00;0.00;;;;;;;;;;5031829;28;20048;-58
2024/01/18 00:28:28;;;;;;;0.05;0.00;;;;;;;;;;5032421;28;20048;-58
2024/01/18 00:30:54;;;;;;;0.00;0.00;;;;;;;;;;5031444;28;20037;-59
2024/01/18 00:33:20;;;;;;;0.13;0.00;;;;;;;;;;5033556;28;20067;-59
2024/01/18 00:35:48;;;;;;;0.10;0.00;;;;;;;;;;5033063;28;20491;-59
2024/01/18 00:38:14;;;;;;;0.00;0.00;;;;;;;;;;5035784;28;20034;-59
2024/01/18 00:40:41;;;;;;;0.00;0.00;;;;;;;;;;5029118;28;20056;-59
2024/01/18 00:43:07;;;;;;;0.00;0.00;;;;;;;;;;5035178;28;20045;-59
2024/01/18 00:45:33;;;;;;;0.00;0.00;;;;;;;;;;5032091;28;20045;-58
2024/01/18 00:47:59;;;;;;;0.00;0.00;;;;;;;;;;5032884;28;20407;-59
2024/01/18 00:50:25;;;;;;;0.00;0.00;;;;;;;;;;5031966;28;20041;-59
2024/01/18 00:52:51;;;;;;;0.00;0.00;;;;;;;;;;5038705;28;20499;-58
2024/01/18 00:55:17;;;;;;;0.00;0.00;;;;;;;;;;5035108;28;20113;-58
2024/01/18 00:57:43;;;;;;;0.00;0.00;;;;;;;;;;5036823;28;20037;-58
2024/01/18 01:00:09;;;;;;;0.80;0.25;;;;;;;;;;5038846;28;20037;-59
2024/01/18 01:02:35;;;;;;;0.00;0.00;;;;;;;;;;5035331;28;20124;-58
2024/01/18 01:05:01;;;;;;;0.00;0.00;;;;;;;;;;5019832;28;20183;-58
2024/01/18 01:07:27;;;;;;;0.00;0.00;;;;;;;;;;5036146;28;20466;-58
2024/01/18 01:09:53;;;;;;;0.00;0.00;;;;;;;;;;5035963;28;20064;-58
2024/01/18 01:12:19;;;;;;;0.00;0.00;;;;;;;;;;5037267;28;20052;-58
2024/01/18 01:14:45;;;;;;;0.00;0.00;;;;;;;;;;5035312;28;20041;-58
2024/01/18 01:17:11;;;;;;;0.05;0.00;;;;;;;;;;5031426;28;20037;-58
2024/01/18 01:19:37;;;;;;;0.22;0.00;;;;;;;;;;5033841;28;20455;-58
2024/01/18 01:22:03;;;;;;;0.00;0.00;;;;;;;;;;5031932;28;20077;-58
2024/01/18 01:24:29;;;;;;;0.10;0.10;;;;;;;;;;5032905;28;20033;-59
2024/01/18 01:26:56;;;;;;;0.10;0.08;;;;;;;;;;5031190;28;20041;-58
2024/01/18 01:29:23;;;;;;;0.00;0.00;;;;;;;;;;5033240;28;20042;-58
2024/01/18 01:31:49;;;;;;;0.10;0.00;;;;;;;;;;5036126;28;20061;-58
2024/01/18 01:34:15;;;;;;;0.00;0.00;;;;;;;;;;5034498;28;20101;-58
2024/01/18 01:36:41;;;;;;;0.08;0.00;;;;;;;;;;5013204;28;20049;-58
2024/01/18 01:39:07;;;;;;;0.40;0.40;;;;;;;;;;5041521;28;20037;-58
2024/01/18 01:41:33;;;;;;;0.00;0.00;;;;;;;;;;5038822;28;20647;-58
2024/01/18 01:44:02;;;;;;;0.10;0.10;;;;;;;;;;5035146;28;20052;-57
2024/01/18 01:46:29;;;;;;;0.00;0.00;;;;;;;;;;5034198;28;20045;-58
2024/01/18 01:48:58;;;;;;;0.20;0.00;;;;;;;;;;5035970;28;20406;-58
2024/01/18 01:51:24;;;;;;;0.00;0.00;;;;;;;;;;5033840;28;20116;-58
2024/01/18 01:53:50;;;;;;;0.00;0.00;;;;;;;;;;5035279;28;20049;-58
2024/01/18 01:56:16;;;;;;;0.00;0.00;;;;;;;;;;5041683;28;20033;-58
2024/01/18 01:58:42;;;;;;;0.00;0.00;;;;;;;;;;5033807;28;20127;-58
2024/01/18 02:01:08;;;;;;;0.00;0.00;;;;;;;;;;5041777;28;20088;-58
2024/01/18 02:03:34;;;;;;;0.00;0.00;;;;;;;;;;5032821;28;20048;-59
2024/01/18 02:06:01;;;;;;;0.00;0.00;;;;;;;;;;5039846;28;20037;-58
2024/01/18 02:08:28;;;;;;;0.00;0.00;;;;;;;;;;5041039;28;20072;-58
2024/01/18 02:10:54;;;;;;;0.00;0.00;;;;;;;;;;5037373;28;20057;-58
2024/01/18 02:13:21;;;;;;;0.00;0.00;;;;;;;;;;5035077;28;20071;-57
2024/01/18 02:15:47;;;;;;;0.00;0.00;;;;;;;;;;5034611;28;20037;-58
2024/01/18 02:18:13;;;;;;;0.00;0.00;;;;;;;;;;5040379;28;20139;-58
2024/01/18 02:20:39;;;;;;;0.00;0.00;;;;;;;;;;5036292;28;20045;-58
2024/01/18 02:23:05;;;;;;;0.00;0.00;;;;;;;;;;5033434;28;20041;-58
2024/01/18 02:25:31;;;;;;;0.05;0.00;;;;;;;;;;5033988;28;20045;-58
2024/01/18 02:27:58;;;;;;;0.00;0.00;;;;;;;;;;5037005;28;20033;-58
2024/01/18 02:30:24;;;;;;;0.00;0.00;;;;;;;;;;5033268;28;20076;-58
2024/01/18 02:32:50;;;;;;;0.00;0.00;;;;;;;;;;5031741;28;20073;-58
2024/01/18 02:35:16;;;;;;;0.00;0.00;;;;;;;;;;5034111;28;20043;-58
2024/01/18 02:37:43;;;;;;;0.00;0.00;;;;;;;;;;5036003;28;20048;-58
2024/01/18 02:40:09;;;;;;;0.00;0.00;;;;;;;;;;5033936;28;20052;-58
2024/01/18 02:42:38;;;;;;;0.00;0.00;;;;;;;;;;5035272;28;20685;-58
2024/01/18 02:45:05;;;;;;;0.00;0.00;;;;;;;;;;5038351;28;20694;-58
2024/01/18 02:47:31;;;;;;;0.00;0.00;;;;;;;;;;5031792;28;20446;-58
2024/01/18 02:49:57;;;;;;;0.00;0.00;;;;;;;;;;5035438;28;20040;-58
2024/01/18 02:52:23;;;;;;;0.00;0.00;;;;;;;;;;5036035;28;20479;-58
2024/01/18 02:54:49;;;;;;;0.00;0.00;;;;;;;;;;5035462;28;20380;-58
2024/01/18 02:57:15;;;;;;;0.00;0.00;;;;;;;;;;5038156;28;20033;-58
2024/01/18 02:59:41;;;;;;;0.00;0.00;;;;;;;;;;5033990;28;20037;-58
2024/01/18 03:02:07;;;;;;;0.00;0.00;;;;;;;;;;5038124;28;20036;-58
2024/01/18 03:04:33;;;;;;;0.00;0.00;;;;;;;;;;5035445;28;20428;-57
2024/01/18 03:06:59;;;;;;;0.00;0.00;;;;;;;;;;5034541;28;20052;-58
2024/01/18 03:09:26;;;;;;;0.00;0.00;;;;;;;;;;5038532;28;20037;-58
2024/01/18 03:11:52;;;;;;;0.00;0.00;;;;;;;;;;5038898;28;20080;-57
2024/01/18 03:14:20;;;;;;;0.00;0.00;;;;;;;;;;5038258;28;20052;-58
2024/01/18 03:16:46;;;;;;;0.00;0.00;;;;;;;;;;5034515;28;20495;-58
2024/01/18 03:19:15;;;;;;;0.00;0.00;;;;;;;;;;5039214;28;20124;-58
2024/01/18 03:21:41;;;;;;;0.00;0.00;;;;;;;;;;5034277;28;20037;-58
2024/01/18 03:24:07;;;;;;;0.00;0.00;;;;;;;;;;5035571;28;20045;-59
2024/01/18 03:26:34;;;;;;;0.00;0.00;;;;;;;;;;5032027;28;20053;-58
2024/01/18 03:29:00;;;;;;;0.00;0.00;;;;;;;;;;5030961;28;20042;-57
2024/01/18 03:31:26;;;;;;;0.00;0.00;;;;;;;;;;5033503;28;20042;-58
2024/01/18 03:33:52;;;;;;;0.00;0.00;;;;;;;;;;5032834;28;20045;-58
2024/01/18 03:36:18;;;;;;;0.10;0.10;;;;;;;;;;5038278;28;20508;-57
2024/01/18 03:38:44;;;;;;;0.08;0.08;;;;;;;;;;5032747;28;20075;-58
2024/01/18 03:41:10;;;;;;;0.20;0.20;;;;;;;;;;5034701;28;20065;-59
2024/01/18 03:43:36;;;;;;;0.10;0.10;;;;;;;;;;5031549;28;20049;-58
2024/01/18 03:46:02;;;;;;;1.35;0.10;;;;;;;;;;5034164;28;20045;-57
2024/01/18 03:48:28;;;;;;;0.20;0.00;;;;;;;;;;5034822;28;20099;-58
2024/01/18 03:50:54;;;;;;;0.00;0.00;;;;;;;;;;5039316;28;20041;-58
2024/01/18 03:53:20;;;;;;;0.00;0.00;;;;;;;;;;5041081;28;20048;-58
2024/01/18 03:55:46;;;;;;;0.05;0.00;;;;;;;;;;5040992;28;20063;-58
2024/01/18 03:58:12;;;;;;;0.00;0.00;;;;;;;;;;5039983;28;20052;-59
2024/01/18 04:00:39;;;;;;;0.10;0.10;;;;;;;;;;5041058;28;20132;-58
2024/01/18 04:03:05;;;;;;;0.00;0.00;;;;;;;;;;5041926;28;20403;-58
2024/01/18 04:05:31;;;;;;;0.00;0.00;;;;;;;;;;5037596;28;20102;-58
2024/01/18 04:07:57;;;;;;;0.00;0.00;;;;;;;;;;5037281;28;20064;-58
2024/01/18 04:10:23;;;;;;;0.00;0.00;;;;;;;;;;5038301;28;20410;-59
2024/01/18 04:12:49;;;;;;;0.00;0.00;;;;;;;;;;5031626;28;20690;-59
2024/01/18 04:15:15;;;;;;;0.00;0.00;;;;;;;;;;5039606;28;20052;-59
2024/01/18 04:17:41;;;;;;;0.00;0.00;;;;;;;;;;5034499;28;20041;-58
2024/01/18 04:20:10;;;;;;;0.00;0.00;;;;;;;;;;5041271;28;20044;-58
2024/01/18 04:22:36;;;;;;;0.00;0.00;;;;;;;;;;5036696;28;20087;-59
2024/01/18 04:25:03;;;;;;;0.00;0.00;;;;;;;;;;5035863;28;20087;-58
2024/01/18 04:27:29;;;;;;;0.00;0.00;;;;;;;;;;5037815;28;20574;-58
2024/01/18 04:29:55;;;;;;;0.00;0.00;;;;;;;;;;5033007;28;20088;-58
2024/01/18 04:32:21;;;;;;;0.00;0.00;;;;;;;;;;5035269;28;20487;-58
2024/01/18 04:34:47;;;;;;;0.00;0.00;;;;;;;;;;5035070;28;20052;-58
2024/01/18 04:37:13;;;;;;;0.10;0.00;;;;;;;;;;5037437;28;20048;-58
2024/01/18 04:39:39;;;;;;;0.00;0.00;;;;;;;;;;5034275;28;20269;-58
2024/01/18 04:42:05;;;;;;;0.00;0.00;;;;;;;;;;5033272;28;20313;-58
2024/01/18 04:44:31;;;;;;;0.00;0.00;;;;;;;;;;5032271;28;20158;-58
2024/01/18 04:46:57;;;;;;;0.00;0.00;;;;;;;;;;5034128;28;20056;-58
2024/01/18 04:49:24;;;;;;;0.00;0.00;;;;;;;;;;5034970;28;20186;-58
2024/01/18 04:51:50;;;;;;;0.00;0.00;;;;;;;;;;5028660;28;20301;-58
2024/01/18 04:54:16;;;;;;;0.00;0.00;;;;;;;;;;5027333;28;20056;-58
2024/01/18 04:56:42;;;;;;;0.00;0.00;;;;;;;;;;5014803;28;20455;-58
2024/01/18 04:59:08;;;;;;;0.00;0.00;;;;;;;;;;5034079;28;20045;-58
2024/01/18 05:01:39;;;;;;;0.00;0.00;;;;;;;;;;5036197;28;20079;-58
2024/01/18 05:04:05;;;;;;;0.00;0.00;;;;;;;;;;5033553;28;20429;-58
2024/01/18 05:06:32;;;;;;;0.00;0.00;;;;;;;;;;5032627;28;20216;-58
2024/01/18 05:08:58;;;;;;;0.00;0.00;;;;;;;;;;5032848;28;20040;-58
2024/01/18 05:11:25;;;;;;;0.15;0.00;;;;;;;;;;5033305;28;20126;-58
2024/01/18 05:13:51;;;;;;;0.00;0.00;;;;;;;;;;5031090;28;20056;-58
2024/01/18 05:16:18;;;;;;;0.00;0.00;;;;;;;;;;5035098;28;20140;-59
2024/01/18 05:18:44;;;;;;;0.00;0.00;;;;;;;;;;5034461;28;20044;-58
2024/01/18 05:21:10;;;;;;;0.00;0.00;;;;;;;;;;5037437;28;20510;-58
2024/01/18 05:23:37;;;;;;;0.13;0.00;;;;;;;;;;5037705;28;20070;-58
2024/01/18 05:26:03;;;;;;;0.00;0.00;;;;;;;;;;5018259;28;20107;-58
2024/01/18 05:28:29;;;;;;;0.00;0.00;;;;;;;;;;5036234;28;20340;-58
2024/01/18 05:30:56;;;;;;;0.00;0.00;;;;;;;;;;5033895;28;20076;-58
2024/01/18 05:33:22;;;;;;;0.00;0.00;;;;;;;;;;5035732;28;20037;-58
2024/01/18 05:35:48;;;;;;;0.00;0.00;;;;;;;;;;5037057;28;20041;-58
2024/01/18 05:38:14;;;;;;;0.00;0.00;;;;;;;;;;5034584;28;20037;-58
2024/01/18 05:40:40;;;;;;;0.00;0.00;;;;;;;;;;5035208;28;20041;-58
2024/01/18 05:43:07;;;;;;;0.00;0.00;;;;;;;;;;5035190;28;20037;-58
2024/01/18 05:45:33;;;;;;;0.00;0.00;;;;;;;;;;5035139;28;20049;-58
2024/01/18 05:48:01;;;;;;;0.00;0.00;;;;;;;;;;5034194;28;20082;-58
2024/01/18 05:50:27;;;;;;;0.00;0.00;;;;;;;;;;5030966;28;20120;-58
2024/01/18 05:52:53;;;;;;;0.00;0.00;;;;;;;;;;5034672;28;20498;-58
2024/01/18 05:55:19;;;;;;;0.10;0.00;;;;;;;;;;5015085;28;20052;-58
2024/01/18 05:57:45;;;;;;;0.00;0.00;;;;;;;;;;5030809;28;20202;-58
2024/01/18 06:00:12;;;;;;;0.00;0.00;;;;;;;;;;5035682;28;20037;-58
2024/01/18 06:02:38;;;;;;;0.00;0.00;;;;;;;;;;5038749;28;20056;-57
2024/01/18 06:05:06;;;;;;;0.00;0.00;;;;;;;;;;5032985;28;20137;-58
2024/01/18 06:07:33;;;;;;;0.00;0.00;;;;;;;;;;5035454;28;20053;-58
2024/01/18 06:09:59;;;;;;;0.00;0.00;;;;;;;;;;5037947;28;20466;-58
2024/01/18 06:12:25;;;;;;;0.00;0.00;;;;;;;;;;5036463;28;20564;-58
2024/01/18 06:14:51;;;;;;;0.00;0.00;;;;;;;;;;5036183;28;20144;-58
2024/01/18 06:17:17;;;;;;;0.20;0.20;;;;;;;;;;5040496;28;20112;-58
2024/01/18 06:19:43;;;;;;;0.00;0.00;;;;;;;;;;5035688;28;20041;-58
2024/01/18 06:22:09;;;;;;;0.00;0.00;;;;;;;;;;5039156;28;20037;-58
2024/01/18 06:24:36;;;;;;;0.00;0.00;;;;;;;;;;5037789;28;20045;-58
2024/01/18 06:27:02;;;;;;;0.00;0.00;;;;;;;;;;5033458;28;20399;-58
2024/01/18 06:29:30;;;;;;;0.05;0.05;;;;;;;;;;5040589;28;20044;-58
2024/01/18 06:31:56;;;;;;;0.00;0.00;;;;;;;;;;5037266;28;20073;-58
2024/01/18 06:34:22;;;;;;;0.00;0.00;;;;;;;;;;5037928;28;20145;-58
2024/01/18 06:36:48;;;;;;;0.00;0.00;;;;;;;;;;5038058;28;20306;-58
2024/01/18 06:39:15;;;;;;;0.00;0.00;;;;;;;;;;5033139;28;20411;-58
2024/01/18 06:41:41;;;;;;;0.00;0.00;;;;;;;;;;5034375;28;20048;-56
2024/01/18 06:44:08;;;;;;;0.00;0.00;;;;;;;;;;5035456;28;20048;-58
2024/01/18 06:46:34;;;;;;;0.00;0.00;;;;;;;;;;5035283;28;20052;-57
2024/01/18 06:49:00;;;;;;;0.00;0.00;;;;;;;;;;5037750;28;20037;-57
2024/01/18 06:51:28;;;;;;;0.00;0.00;;;;;;;;;;5034099;28;20116;-58
2024/01/18 06:53:54;;;;;;;0.28;0.00;;;;;;;;;;5033690;28;20391;-58
2024/01/18 06:56:20;;;;;;;0.05;0.00;;;;;;;;;;5035119;28;20034;-58
2024/01/18 06:58:46;;;;;;;0.70;0.10;;;;;;;;;;5037140;28;20113;-57
2024/01/18 07:01:12;;;;;;;0.00;0.00;;;;;;;;;;5037224;28;20047;-57
2024/01/18 07:03:40;;;;;;;0.00;0.00;;;;;;;;;;5031703;28;20040;-58
2024/01/18 07:06:06;;;;;;;0.00;0.00;;;;;;;;;;5030906;28;20040;-58
2024/01/18 07:08:32;;;;;;;0.00;0.00;;;;;;;;;;5049494;28;20045;-59
2024/01/18 07:10:58;;;;;;;0.00;0.00;;;;;;;;;;5050146;28;20060;-58
2024/01/18 07:13:27;;;;;;;0.00;0.00;;;;;;;;;;5049126;28;20056;-58
2024/01/18 07:15:53;;;;;;;0.00;0.00;;;;;;;;;;5049661;28;20140;-59
2024/01/18 07:18:19;;;;;;;0.00;0.00;;;;;;;;;;5049681;28;20137;-58
2024/01/18 07:20:45;;;;;;;0.00;0.00;;;;;;;;;;5048821;28;20147;-58
2024/01/18 07:23:11;;;;;;;0.22;0.00;;;;;;;;;;5039505;28;20052;-58
2024/01/18 07:25:37;;;;;;;1.10;0.10;;;;;;;;;;5049563;28;20056;-58
2024/01/18 07:28:03;;;;;;;0.05;0.00;;;;;;;;;;5048883;28;20140;-58
2024/01/18 07:30:29;;;;;;;0.43;0.10;;;;;;;;;;5049652;28;20052;-58
2024/01/18 07:32:55;;;;;;;0.00;0.00;;;;;;;;;;5031609;28;20124;-58
2024/01/18 07:35:21;;;;;;;0.13;0.00;;;;;;;;;;5047260;28;20123;-58
2024/01/18 07:37:47;;;;;;;0.00;0.00;;;;;;;;;;5044899;28;20398;-58
2024/01/18 07:40:14;;;;;;;0.03;0.03;;;;;;;;;;5047309;28;20482;-58
2024/01/18 07:42:40;;;;;;;0.00;0.00;;;;;;;;;;5045269;28;20048;-58
2024/01/18 07:45:07;;;;;;;0.00;0.00;;;;;;;;;;5049156;28;20055;-57
2024/01/18 07:47:33;;;;;;;0.00;0.00;;;;;;;;;;5049384;28;20049;-58
2024/01/18 07:49:59;;;;;;;0.00;0.00;;;;;;;;;;5049168;28;20112;-58
2024/01/18 07:52:25;;;;;;;0.00;0.00;;;;;;;;;;5049200;28;20116;-58
2024/01/18 07:54:51;;;;;;;0.00;0.00;;;;;;;;;;5049493;28;20041;-57
2024/01/18 07:57:18;;;;;;;0.00;0.00;;;;;;;;;;5048939;28;20048;-58
2024/01/18 07:59:44;;;;;;;0.10;0.00;;;;;;;;;;5049402;28;20541;-58
2024/01/18 08:02:09;;;;;;;0.38;0.10;;;;;;;;;;5042010;28;20037;-58
2024/01/18 08:04:35;;;;;;;0.50;0.20;;;;;;;;;;5040053;28;20036;-58
2024/01/18 08:07:02;;;;;;;0.17;0.10;;;;;;;;;;5042873;28;20376;-57
2024/01/18 08:09:28;;;;;;;0.17;0.10;;;;;;;;;;5043350;28;20037;-58
2024/01/18 08:11:54;;;;;;;0.70;0.20;;;;;;;;;;5047731;28;20060;-58
2024/01/18 08:14:20;;;;;;;0.28;0.05;;;;;;;;;;5047630;28;20044;-58
2024/01/18 08:16:46;;;;;;;0.22;0.13;;;;;;;;;;5042362;28;20483;-59
2024/01/18 08:19:12;;;;;;;0.10;0.10;;;;;;;;;;5045358;28;20048;-58
2024/01/18 08:21:44;;;;;;;0.10;0.08;;;;;;;;;;5039795;28;20051;-58
2024/01/18 08:24:10;;;;;;;0.45;0.20;;;;;;;;;;5046894;28;20511;-58
2024/01/18 08:26:36;;;;;;;0.03;0.00;;;;;;;;;;5046323;28;20466;-58
2024/01/18 08:29:02;;;;;;;0.00;0.00;;;;;;;;;;5048255;28;20044;-58
2024/01/18 08:31:29;;;;;;;0.35;0.10;;;;;;;;;;5041202;28;20081;-58
2024/01/18 08:33:55;;;;;;;0.00;0.00;;;;;;;;;;5045312;28;20094;-58
2024/01/18 08:36:21;;;;;;;0.00;0.00;;;;;;;;;;5038613;28;20049;-58
2024/01/18 08:38:54;;;;;;;0.10;0.05;;;;;;;;;;5043729;28;20037;-58
2024/01/18 08:41:20;;;;;;;0.00;0.00;;;;;;;;;;5037491;28;20051;-59
2024/01/18 08:43:47;;;;;;;0.43;0.13;;;;;;;;;;5037688;28;21686;-58
2024/01/18 08:46:14;;;;;;;0.00;0.00;;;;;;;;;;5030541;28;20045;-58
2024/01/18 08:48:40;;;;;;;0.00;0.00;;;;;;;;;;5037620;28;20043;-58
2024/01/18 08:51:12;;;;;;;0.00;0.00;;;;;;;;;;5033798;28;20029;-59
2024/01/18 08:53:40;;;;;;;0.00;0.00;;;;;;;;;;5032274;28;20051;-58
2024/01/18 08:56:06;;;;;;;0.00;0.00;;;;;;;;;;5040447;28;20056;-59
2024/01/18 08:58:32;;;;;;;0.00;0.00;;;;;;;;;;5045583;28;20084;-58
2024/01/18 09:00:58;;;;;;;0.00;0.00;;;;;;;;;;5035568;28;20456;-58
2024/01/18 09:03:24;;;;;;;0.00;0.00;;;;;;;;;;5040884;28;20469;-58
2024/01/18 09:05:50;;;;;;;0.00;0.00;;;;;;;;;;5042464;28;20386;-58
2024/01/18 09:08:16;;;;;;;0.00;0.00;;;;;;;;;;5042175;28;20100;-59
2024/01/18 09:10:42;;;;;;;0.00;0.00;;;;;;;;;;5047400;28;20124;-58
2024/01/18 09:13:08;;;;;;;0.00;0.00;;;;;;;;;;5045790;28;20471;-58
2024/01/18 09:15:35;;;;;;;0.20;0.00;;;;;;;;;;5045779;28;20132;-58
2024/01/18 09:18:01;;;;;;;0.00;0.00;;;;;;;;;;5047404;28;20546;-58
2024/01/18 09:20:27;;;;;;;0.00;0.00;;;;;;;;;;5045804;28;20495;-59
2024/01/18 09:22:53;;;;;;;0.00;0.00;;;;;;;;;;5038928;28;20049;-59
2024/01/18 09:25:19;;;;;;;0.10;0.10;;;;;;;;;;5038427;28;20094;-58
2024/01/18 09:27:45;;;;;;;0.13;0.08;;;;;;;;;;5045225;28;20097;-58
2024/01/18 09:30:12;;;;;;;0.03;0.03;;;;;;;;;;5046041;28;20040;-58
2024/01/18 09:32:39;;;;;;;0.10;0.08;;;;;;;;;;5045793;28;20068;-58
2024/01/18 09:35:08;;;;;;;0.20;0.10;;;;;;;;;;5045060;28;20052;-58
2024/01/18 09:37:35;;;;;;;0.00;0.00;;;;;;;;;;5039769;28;20052;-58
2024/01/18 09:40:01;;;;;;;0.10;0.10;;;;;;;;;;5044982;28;20053;-58
2024/01/18 09:42:31;;;;;;;0.00;0.00;;;;;;;;;;5043126;28;20410;-58
2024/01/18 09:45:00;;;;;;;0.15;0.10;;;;;;;;;;5035683;28;20041;-58
2024/01/18 09:47:26;;;;;;;0.00;0.00;;;;;;;;;;5031203;28;20208;-58
2024/01/18 09:49:53;;;;;;;0.00;0.00;;;;;;;;;;5047760;28;20055;-58
2024/01/18 09:52:19;;;;;;;0.00;0.00;;;;;;;;;;5048234;28;20039;-58
2024/01/18 09:54:45;;;;;;;0.45;0.10;;;;;;;;;;5045403;28;20037;-59
2024/01/18 09:57:16;;;;;;;0.00;0.00;;;;;;;;;;5032747;28;20040;-58
2024/01/18 09:59:45;;;;;;;0.00;0.00;;;;;;;;;;5031043;28;20120;-58
2024/01/18 10:02:12;;;;;;;0.00;0.00;;;;;;;;;;5035486;28;20039;-54
2024/01/18 10:04:39;;;;;;;0.00;0.00;;;;;;;;;;5039204;28;20167;-57
2024/01/18 10:07:05;;;;;;;0.65;0.10;;;;;;;;;;5044789;28;20037;-58
2024/01/18 10:09:31;;;;;;;0.03;0.03;;;;;;;;;;5043408;28;20171;-59
2024/01/18 10:11:57;;;;;;;0.00;0.00;;;;;;;;;;5037438;28;20049;-59
2024/01/18 10:14:43;;;;;;;0.00;0.00;;;;;;;;;;5041825;28;20049;-59
2024/01/18 10:17:30;;;;;;;0.00;0.00;;;;;;;;;;5037565;28;20083;-60
2024/01/18 10:19:56;;;;;;;0.00;0.00;;;;;;;;;;5045502;28;20056;-59
2024/01/18 10:22:22;;;;;;;0.00;0.00;;;;;;;;;;5047330;28;20040;-59
2024/01/18 10:24:49;;;;;;;0.13;0.10;;;;;;;;;;5040950;28;20056;-58
2024/01/18 10:27:15;;;;;;;0.10;0.10;;;;;;;;;;5031630;28;20053;-58
2024/01/18 10:29:41;;;;;;;0.28;0.20;;;;;;;;;;5039145;28;20237;-59
2024/01/18 10:32:07;;;;;;;0.20;0.20;;;;;;;;;;5035591;28;20799;-58
2024/01/18 10:34:39;;;;;;;0.10;0.10;;;;;;;;;;5043517;28;20065;-59
2024/01/18 10:37:06;;;;;;;0.10;0.10;;;;;;;;;;5041765;28;20041;-59
2024/01/18 10:39:39;;;;;;;0.75;0.17;;;;;;;;;;5043335;28;20091;-58
2024/01/18 10:42:07;;;;;;;0.70;0.20;;;;;;;;;;5041911;28;20037;-58
2024/01/18 10:44:34;;;;;;;0.45;0.20;;;;;;;;;;5034537;28;20091;-59
2024/01/18 10:47:06;;;;;;;0.15;0.10;;;;;;;;;;5038827;28;20049;-59
2024/01/18 10:49:33;;;;;;;0.10;0.10;;;;;;;;;;5038484;28;20048;-59
2024/01/18 10:51:59;;;;;;;0.32;0.30;;;;;;;;;;5042505;28;20315;-59
2024/01/18 10:54:25;;;;;;;0.20;0.20;;;;;;;;;;5039069;28;20045;-59
2024/01/18 10:56:51;;;;;;;0.30;0.20;;;;;;;;;;5046045;28;20038;-59
2024/01/18 10:59:17;;;;;;;0.22;0.22;;;;;;;;;;5044760;28;20045;-59
2024/01/18 11:01:44;;;;;;;0.00;0.00;;;;;;;;;;5040787;28;20040;-59
2024/01/18 11:04:11;;;;;;;0.10;0.10;;;;;;;;;;5043641;28;20044;-59
2024/01/18 11:06:37;;;;;;;0.08;0.08;;;;;;;;;;5042193;28;20041;-59
2024/01/18 11:09:03;;;;;;;0.08;0.08;;;;;;;;;;5044917;28;20384;-59
2024/01/18 11:11:31;;;;;;;0.15;0.15;;;;;;;;;;5038331;28;20056;-59
2024/01/18 11:13:57;;;;;;;0.10;0.10;;;;;;;;;;5040048;28;20048;-59
2024/01/18 11:16:23;;;;;;;0.05;0.05;;;;;;;;;;5042858;28;20040;-58
2024/01/18 11:18:52;;;;;;;0.10;0.10;;;;;;;;;;5043001;28;20368;-59
2024/01/18 11:21:18;;;;;;;0.00;0.00;;;;;;;;;;5044866;28;20041;-59
2024/01/18 11:23:44;;;;;;;0.13;0.13;;;;;;;;;;5041211;28;20457;-59
2024/01/18 11:26:21;;;;;;;0.10;0.10;;;;;;;;;;5042509;28;20053;-59
2024/01/18 11:28:47;;;;;;;0.05;0.05;;;;;;;;;;5033838;28;20435;-60
2024/01/18 11:31:13;;;;;;;0.00;0.00;;;;;;;;;;5038346;28;20041;-59
2024/01/18 11:33:40;;;;;;;0.10;0.10;;;;;;;;;;5035104;28;20064;-60
2024/01/18 11:36:08;;;;;;;0.10;0.00;;;;;;;;;;5040815;28;20043;-59
2024/01/18 11:38:43;;;;;;;2.00;0.20;;;;;;;;;;5039533;28;20415;-59
2024/01/18 11:41:10;;;;;;;0.20;0.10;;;;;;;;;;5037306;28;20073;-58
2024/01/18 11:43:52;;;;;;;0.20;0.10;;;;;;;;;;5033521;28;20106;-59
2024/01/18 11:46:32;;;;;;;0.38;0.00;;;;;;;;;;5039927;28;20078;-59
2024/01/18 11:48:58;;;;;;;0.20;0.20;;;;;;;;;;5034101;28;20045;-59
2024/01/18 11:51:24;;;;;;;0.05;0.05;;;;;;;;;;5038858;28;20595;-58
2024/01/18 11:53:51;;;;;;;0.50;0.10;;;;;;;;;;5036985;28;20044;-59
2024/01/18 11:56:18;;;;;;;0.10;0.10;;;;;;;;;;5035882;28;20029;-58
2024/01/18 11:58:44;;;;;;;0.10;0.10;;;;;;;;;;5036753;28;20801;-59
2024/01/18 12:01:13;;;;;;;0.10;0.10;;;;;;;;;;5033988;28;20736;-59
2024/01/18 12:03:40;;;;;;;0.30;0.10;;;;;;;;;;5032006;28;20045;-59
2024/01/18 12:06:06;;;;;;;0.10;0.10;;;;;;;;;;5039773;28;20044;-59
2024/01/18 12:08:32;;;;;;;0.10;0.10;;;;;;;;;;5043912;28;20045;-59
2024/01/18 12:10:58;;;;;;;0.20;0.10;;;;;;;;;;5035323;28;20503;-59
2024/01/18 12:13:26;;;;;;;1.38;0.20;;;;;;;;;;5040289;28;20347;-59
2024/01/18 12:15:53;;;;;;;0.10;0.10;;;;;;;;;;5041582;28;20045;-59
2024/01/18 12:18:19;;;;;;;0.20;0.20;;;;;;;;;;5034688;28;20053;-60
2024/01/18 12:20:45;;;;;;;1.83;0.15;;;;;;;;;;5044660;28;20041;-60
2024/01/18 12:23:15;;;;;;;1.75;0.10;;;;;;;;;;5043415;28;20106;-60
2024/01/18 12:25:41;;;;;;;1.85;0.20;;;;;;;;;;5044166;28;20277;-60
2024/01/18 12:28:07;;;;;;;0.10;0.10;;;;;;;;;;5044276;28;20052;-59
2024/01/18 12:30:34;;;;;;;0.20;0.05;;;;;;;;;;5043544;28;20649;-60
2024/01/18 12:33:00;;;;;;;0.80;0.77;;;;;;;;;;5044994;28;20037;-60
2024/01/18 12:35:26;;;;;;;1.13;0.15;;;;;;;;;;5044774;28;20124;-60
2024/01/18 12:37:52;;;;;;;0.15;0.15;;;;;;;;;;5045150;28;20045;-60
2024/01/18 12:40:18;;;;;;;0.52;0.10;;;;;;;;;;5045500;28;20124;-60
2024/01/18 12:42:49;;;;;;;1.05;0.30;;;;;;;;;;5036381;28;20037;-59
2024/01/18 12:45:15;;;;;;;0.32;0.10;;;;;;;;;;5041667;28;20049;-60
2024/01/18 12:47:41;;;;;;;0.10;0.10;;;;;;;;;;5041042;28;20041;-60
2024/01/18 12:50:09;;;;;;;1.77;0.45;;;;;;;;;;5039428;28;20045;-60
2024/01/18 12:52:36;;;;;;;0.47;0.28;;;;;;;;;;5032234;28;20128;-60
2024/01/18 12:55:02;;;;;;;0.30;0.10;;;;;;;;;;5039596;28;20086;-60
2024/01/18 12:57:29;;;;;;;1.27;0.22;;;;;;;;;;5045322;28;20044;-60
2024/01/18 12:59:55;;;;;;;1.02;0.22;;;;;;;;;;5015345;28;20487;-60
2024/01/18 13:02:25;;;;;;;0.95;0.57;;;;;;;;;;5030303;28;20041;-60
2024/01/18 13:04:51;;;;;;;0.40;0.32;;;;;;;;;;5025995;28;20041;-60
2024/01/18 13:07:18;;;;;;;0.63;0.28;;;;;;;;;;5012311;28;20478;-59
2024/01/18 13:09:44;;;;;;;0.20;0.20;;;;;;;;;;5039140;28;20450;-60
2024/01/18 13:12:10;;;;;;;0.63;0.22;;;;;;;;;;5039146;28;20056;-60
2024/01/18 13:14:36;;;;;;;0.75;0.20;;;;;;;;;;5036793;28;20099;-60
2024/01/18 13:17:03;;;;;;;0.68;0.30;;;;;;;;;;5040774;28;20033;-60
2024/01/18 13:19:29;;;;;;;1.10;0.10;;;;;;;;;;5043155;28;20045;-60
2024/01/18 13:21:55;;;;;;;1.48;0.17;;;;;;;;;;5043193;28;20037;-60
2024/01/18 13:24:22;;;;;;;0.28;0.20;;;;;;;;;;5040305;28;20091;-60
2024/01/18 13:26:48;;;;;;;2.45;0.22;;;;;;;;;;5036084;28;20041;-61
2024/01/18 13:29:16;;;;;;;2.80;0.30;;;;;;;;;;5044659;28;20378;-61
2024/01/18 13:31:42;;;;;;;1.75;0.70;;;;;;;;;;5035907;28;20477;-60
2024/01/18 13:34:08;;;;;;;0.65;0.10;;;;;;;;;;5038493;28;20144;-59
2024/01/18 13:36:34;;;;;;;0.08;0.00;;;;;;;;;;5042738;28;20143;-61
2024/01/18 13:39:01;;;;;;;0.70;0.22;;;;;;;;;;5045864;28;20041;-60
2024/01/18 13:41:27;;;;;;;2.05;0.17;;;;;;;;;;5042203;28;20445;-60
2024/01/18 13:43:53;;;;;;;0.80;0.30;;;;;;;;;;5043643;28;20049;-59
2024/01/18 13:46:20;;;;;;;0.20;0.10;;;;;;;;;;5040754;28;20453;-59
2024/01/18 13:48:46;;;;;;;0.65;0.10;;;;;;;;;;5035915;28;20196;-60
2024/01/18 13:51:13;;;;;;;0.10;0.10;;;;;;;;;;5036479;28;20041;-62
2024/01/18 13:53:39;;;;;;;0.10;0.10;;;;;;;;;;5037589;28;20099;-62
2024/01/18 13:56:05;;;;;;;0.03;0.00;;;;;;;;;;5035574;28;20056;-62
2024/01/18 13:58:31;;;;;;;0.20;0.00;;;;;;;;;;5046483;28;20049;-61
2024/01/18 14:00:59;;;;;;;0.68;0.25;;;;;;;;;;5047620;28;20099;-61
2024/01/18 14:03:25;;;;;;;1.20;0.10;;;;;;;;;;5047419;28;20040;-62
2024/01/18 14:05:51;;;;;;;0.20;0.10;;;;;;;;;;5039090;28;20537;-62
2024/01/18 14:08:17;;;;;;;0.00;0.00;;;;;;;;;;5046599;28;20284;-62
2024/01/18 14:10:43;;;;;;;0.03;0.03;;;;;;;;;;5046875;28;20041;-61
2024/01/18 14:13:09;;;;;;;0.13;0.10;;;;;;;;;;5047426;28;20127;-62
2024/01/18 14:15:36;;;;;;;0.43;0.08;;;;;;;;;;5046168;28;20442;-61
2024/01/18 14:18:03;;;;;;;0.65;0.03;;;;;;;;;;5038971;28;20409;-61
2024/01/18 14:20:29;;;;;;;0.30;0.10;;;;;;;;;;5048355;28;20398;-61
2024/01/18 14:22:55;;;;;;;0.32;0.00;;;;;;;;;;5047583;28;20110;-62
2024/01/18 14:25:21;;;;;;;0.00;0.00;;;;;;;;;;5048117;28;20041;-61
2024/01/18 14:27:47;;;;;;;0.00;0.00;;;;;;;;;;5048017;28;20041;-62
2024/01/18 14:30:13;;;;;;;0.00;0.00;;;;;;;;;;5047207;28;20049;-61
2024/01/18 14:32:40;;;;;;;0.43;0.10;;;;;;;;;;5048081;28;20094;-62
2024/01/18 14:35:06;;;;;;;0.30;0.10;;;;;;;;;;5047239;28;20045;-62
2024/01/18 14:37:33;;;;;;;0.20;0.10;;;;;;;;;;5047529;28;20507;-62
2024/01/18 14:39:59;;;;;;;0.20;0.10;;;;;;;;;;5047707;28;20509;-62